Time;durP1;ratioP1;P1;durP2;ratioP2;P2;SDS_P1;SDS_P2;PMS_P1;PMS_P2;Temp;Humidity;BMP_temperature;BMP_pressure;BME280_temperature;BME280_humidity;BME280_pressure;Samples;Min_cycle;Max_cycle;Signal;HPM_P1;HPM_P2
2021/01/07 00:00:53;;;;;;;65.57;32.50;;;;;;;4.32;87.30;99864.38;5116071;28;20031;-59
2021/01/07 00:03:18;;;;;;;59.58;31.75;;;;;;;4.32;87.38;99880.25;5117284;28;20049;-58
2021/01/07 00:05:43;;;;;;;62.08;33.28;;;;;;;4.40;86.93;99875.63;5120319;27;20055;-59
2021/01/07 00:08:09;;;;;;;56.00;28.85;;;;;;;4.36;87.26;99875.56;5120377;28;20028;-57
2021/01/07 00:10:34;;;;;;;43.88;25.42;;;;;;;4.36;86.72;99881.13;5119771;28;20341;-59
2021/01/07 00:12:59;;;;;;;38.03;22.38;;;;;;;4.35;87.26;99883.09;5119915;28;20110;-58
2021/01/07 00:15:25;;;;;;;34.20;20.90;;;;;;;4.46;87.31;99885.28;5119938;28;20047;-59
2021/01/07 00:17:50;;;;;;;29.25;17.83;;;;;;;4.45;87.36;99876.13;5119886;28;20094;-59
2021/01/07 00:20:15;;;;;;;25.33;16.02;;;;;;;4.47;87.56;99865.41;5119828;28;20354;-59
2021/01/07 00:22:41;;;;;;;25.92;15.07;;;;;;;4.49;87.29;99863.06;5119823;28;20038;-59
2021/01/07 00:25:09;;;;;;;23.42;14.45;;;;;;;4.50;87.31;99853.53;5119822;28;20023;-58
2021/01/07 00:27:34;;;;;;;22.77;14.65;;;;;;;4.52;87.63;99856.75;5119296;28;20422;-58
2021/01/07 00:30:00;;;;;;;26.08;14.63;;;;;;;4.52;87.44;99856.75;5119877;28;20035;-58
2021/01/07 00:32:26;;;;;;;22.05;13.85;;;;;;;4.53;87.84;99855.56;5119332;27;20481;-58
2021/01/07 00:34:51;;;;;;;23.98;14.63;;;;;;;4.53;87.62;99858.34;5119598;28;20016;-56
2021/01/07 00:37:17;;;;;;;25.65;14.25;;;;;;;4.55;87.58;99867.13;5106183;28;20020;-58
2021/01/07 00:39:43;;;;;;;20.52;13.73;;;;;;;4.54;87.83;99870.28;5119425;28;20031;-58
2021/01/07 00:42:08;;;;;;;22.70;13.88;;;;;;;4.53;87.66;99869.47;5119258;28;20415;-54
2021/01/07 00:44:34;;;;;;;28.75;14.77;;;;;;;4.55;87.69;99875.47;5119129;28;20027;-55
2021/01/07 00:46:59;;;;;;;21.35;13.98;;;;;;;4.59;87.90;99876.31;5119632;28;20038;-68
2021/01/07 00:49:24;;;;;;;21.52;14.20;;;;;;;4.61;87.84;99873.97;5119269;28;20020;-67
2021/01/07 00:51:50;;;;;;;21.13;13.38;;;;;;;4.62;87.71;99880.34;5119201;28;20032;-56
2021/01/07 00:54:15;;;;;;;20.40;13.43;;;;;;;4.59;87.73;99867.16;5119287;28;20026;-66
2021/01/07 00:56:41;;;;;;;22.20;13.93;;;;;;;4.58;87.61;99866.38;5117716;28;20054;-66
2021/01/07 00:59:07;;;;;;;24.52;14.10;;;;;;;4.56;86.80;99874.28;5119432;28;20406;-59
2021/01/07 01:01:41;;;;;;;21.10;14.23;;;;;;;4.52;86.53;99878.19;5118944;28;20043;-66
2021/01/07 01:04:06;;;;;;;22.20;13.90;;;;;;;4.47;86.63;99868.19;5119240;28;20027;-66
2021/01/07 01:06:32;;;;;;;24.63;14.40;;;;;;;4.46;86.96;99874.94;5118701;28;20310;-66
2021/01/07 01:08:57;;;;;;;22.58;14.27;;;;;;;4.45;87.06;99866.97;5117745;28;20322;-57
2021/01/07 01:11:23;;;;;;;21.73;14.38;;;;;;;4.40;86.88;99865.31;5119005;28;20291;-48
2021/01/07 01:13:49;;;;;;;22.75;13.88;;;;;;;4.38;86.65;99866.84;5118457;28;20031;-57
2021/01/07 01:16:14;;;;;;;20.70;13.02;;;;;;;4.32;86.59;99866.34;5119067;28;20039;-53
2021/01/07 01:18:40;;;;;;;23.73;13.60;;;;;;;4.28;86.72;99873.84;5118835;28;20061;-56
2021/01/07 01:21:05;;;;;;;21.15;12.73;;;;;;;4.22;86.38;99872.56;5118700;28;20433;-57
2021/01/07 01:23:30;;;;;;;21.73;13.13;;;;;;;4.19;86.46;99870.53;5118077;28;20023;-57
2021/01/07 01:25:56;;;;;;;21.67;13.88;;;;;;;4.18;86.34;99877.28;5118810;28;20427;-53
2021/01/07 01:28:21;;;;;;;23.70;13.27;;;;;;;4.17;86.22;99878.44;5118611;28;20027;-57
2021/01/07 01:30:46;;;;;;;20.50;12.32;;;;;;;4.13;85.99;99877.59;5118693;28;20038;-58
2021/01/07 01:33:12;;;;;;;20.27;13.20;;;;;;;4.07;86.29;99879.84;5118509;27;20046;-57
2021/01/07 01:35:37;;;;;;;22.92;13.45;;;;;;;4.02;85.79;99878.19;5118213;28;20032;-57
2021/01/07 01:38:03;;;;;;;26.00;14.80;;;;;;;3.98;85.97;99876.53;5117916;28;20015;-58
2021/01/07 01:40:29;;;;;;;24.52;13.93;;;;;;;3.94;85.94;99870.09;5117203;28;20041;-56
2021/01/07 01:42:54;;;;;;;26.25;14.90;;;;;;;3.90;86.01;99864.47;5118519;27;20023;-57
2021/01/07 01:45:19;;;;;;;32.45;15.85;;;;;;;3.87;85.72;99859.66;5118116;28;20031;-57
2021/01/07 01:47:45;;;;;;;22.75;13.35;;;;;;;3.83;86.03;99874.66;5118381;28;20187;-58
2021/01/07 01:50:11;;;;;;;19.58;12.20;;;;;;;3.79;86.04;99877.38;5118094;28;20055;-58
2021/01/07 01:52:37;;;;;;;17.90;11.35;;;;;;;3.74;85.93;99866.56;5117707;28;20027;-57
2021/01/07 01:55:03;;;;;;;17.15;10.68;;;;;;;3.72;85.85;99863.34;5118101;28;20016;-56
2021/01/07 01:57:31;;;;;;;15.50;10.38;;;;;;;3.70;85.86;99865.69;5117914;28;20061;-58
2021/01/07 01:59:57;;;;;;;16.60;9.65;;;;;;;3.67;86.26;99860.88;5117946;28;20102;-58
2021/01/07 02:02:22;;;;;;;14.57;8.98;;;;;;;3.66;86.12;99859.28;5117914;28;20126;-56
2021/01/07 02:04:48;;;;;;;15.98;9.82;;;;;;;3.65;86.49;99868.78;5117823;28;20035;-55
2021/01/07 02:07:19;;;;;;;14.27;9.50;;;;;;;3.68;86.42;99868.03;5117526;28;20019;-57
2021/01/07 02:09:45;;;;;;;14.20;8.10;;;;;;;3.66;86.17;99864.84;5117903;28;20035;-58
2021/01/07 02:12:14;;;;;;;17.50;10.23;;;;;;;3.64;85.89;99858.84;5116629;28;20123;-57
2021/01/07 02:14:40;;;;;;;18.80;10.18;;;;;;;3.63;86.18;99865.56;5117754;28;20027;-56
2021/01/07 02:17:06;;;;;;;15.10;9.68;;;;;;;3.64;86.27;99864.41;5117580;28;20024;-56
2021/01/07 02:19:31;;;;;;;21.98;10.93;;;;;;;3.63;86.30;99865.56;5117620;28;20012;-55
2021/01/07 02:21:57;;;;;;;18.63;10.98;;;;;;;3.57;85.81;99862.31;5117212;27;20411;-57
2021/01/07 02:24:24;;;;;;;14.35;9.00;;;;;;;3.52;86.09;99867.34;5117041;28;20024;-58
2021/01/07 02:26:49;;;;;;;14.63;8.98;;;;;;;3.44;85.93;99871.16;5117071;28;20032;-58
2021/01/07 02:29:14;;;;;;;13.23;8.25;;;;;;;3.39;85.82;99883.38;5107982;28;20016;-58
2021/01/07 02:31:40;;;;;;;13.82;7.75;;;;;;;3.34;85.82;99878.13;5117135;28;20020;-61
2021/01/07 02:34:05;;;;;;;48.30;20.75;;;;;;;3.31;86.18;99887.19;5117093;28;20028;-59
2021/01/07 02:36:31;;;;;;;80.13;35.22;;;;;;;3.24;86.22;99879.50;5117077;28;20026;-59
2021/01/07 02:38:56;;;;;;;90.85;38.40;;;;;;;3.20;85.98;99886.16;5116946;28;20031;-57
2021/01/07 02:41:22;;;;;;;68.28;31.77;;;;;;;3.14;85.90;99882.88;5113401;28;20011;-58
2021/01/07 02:43:47;;;;;;;74.97;33.67;;;;;;;3.10;85.95;99879.22;5100688;28;20027;-59
2021/01/07 02:46:12;;;;;;;52.72;26.35;;;;;;;3.03;85.62;99882.66;5115600;28;20073;-57
2021/01/07 02:48:38;;;;;;;45.83;22.90;;;;;;;3.01;86.05;99881.38;5116758;27;20111;-58
2021/01/07 02:51:03;;;;;;;36.95;19.63;;;;;;;2.96;85.81;99881.69;5115429;28;20019;-57
2021/01/07 02:53:28;;;;;;;28.02;14.85;;;;;;;2.93;85.54;99894.31;5109133;28;20028;-59
2021/01/07 02:55:54;;;;;;;28.73;12.45;;;;;;;2.90;85.48;99897.03;5116712;28;20050;-58
2021/01/07 02:58:19;;;;;;;23.27;11.82;;;;;;;2.91;85.45;99896.66;5117014;28;20027;-58
2021/01/07 03:00:44;;;;;;;27.08;12.45;;;;;;;2.87;85.75;99895.78;5116796;28;20150;-59
2021/01/07 03:03:10;;;;;;;18.02;10.50;;;;;;;2.84;85.08;99899.28;5116468;28;20031;-59
2021/01/07 03:05:35;;;;;;;21.15;10.45;;;;;;;2.83;85.65;99910.75;5111006;28;20069;-59
2021/01/07 03:08:00;;;;;;;15.73;9.25;;;;;;;2.83;85.36;99905.19;5116562;28;20485;-58
2021/01/07 03:10:26;;;;;;;17.02;8.70;;;;;;;2.83;85.85;99906.00;5116488;28;20427;-59
2021/01/07 03:12:51;;;;;;;15.75;9.10;;;;;;;2.84;85.58;99918.72;5116450;28;20023;-56
2021/01/07 03:15:17;;;;;;;14.32;7.82;;;;;;;2.88;86.14;99936.25;5116774;28;20027;-58
2021/01/07 03:17:42;;;;;;;15.73;7.60;;;;;;;2.95;86.23;99930.84;5116234;28;20054;-68
2021/01/07 03:20:15;;;;;;;14.18;8.07;;;;;;;3.00;86.26;99926.97;5115227;28;20375;-59
2021/01/07 03:22:42;;;;;;;12.32;7.25;;;;;;;3.03;86.07;99937.38;5116093;28;20023;-58
2021/01/07 03:25:08;;;;;;;14.65;7.90;;;;;;;3.02;86.39;99922.69;5116224;28;20481;-68
2021/01/07 03:27:34;;;;;;;12.32;6.68;;;;;;;3.02;85.92;99921.88;5116111;28;20426;-58
2021/01/07 03:30:00;;;;;;;8.52;5.28;;;;;;;3.05;86.38;99921.97;5116387;28;20023;-61
2021/01/07 03:32:25;;;;;;;8.27;4.28;;;;;;;3.08;86.60;99924.00;5116313;28;20180;-58
2021/01/07 03:34:51;;;;;;;5.80;4.07;;;;;;;3.13;87.23;99936.00;5115684;28;20016;-58
2021/01/07 03:37:17;;;;;;;6.32;4.30;;;;;;;3.20;87.33;99928.63;5115110;28;20023;-58
2021/01/07 03:39:42;;;;;;;7.20;4.20;;;;;;;3.27;87.28;99931.53;5116154;28;20056;-55
2021/01/07 03:42:08;;;;;;;7.03;4.22;;;;;;;3.32;87.64;99928.50;5115592;28;20105;-62
2021/01/07 03:44:33;;;;;;;6.50;4.07;;;;;;;3.36;87.21;99932.13;5115714;28;20020;-66
2021/01/07 03:46:59;;;;;;;7.95;5.47;;;;;;;3.48;87.37;99933.16;5115769;28;20060;-58
2021/01/07 03:49:24;;;;;;;9.60;5.78;;;;;;;3.57;87.09;99928.19;5115899;28;20039;-57
2021/01/07 03:51:49;;;;;;;10.10;5.63;;;;;;;3.66;86.50;99937.09;5115752;28;20032;-66
2021/01/07 03:54:15;;;;;;;12.27;6.57;;;;;;;3.68;86.07;99943.09;5116256;28;20007;-58
2021/01/07 03:56:40;;;;;;;10.60;6.20;;;;;;;3.66;85.75;99935.13;5115806;28;20357;-57
2021/01/07 03:59:05;;;;;;;13.05;8.45;;;;;;;3.62;85.55;99936.22;5115614;28;20019;-58
2021/01/07 04:01:30;;;;;;;10.90;7.28;;;;;;;3.61;85.69;99934.63;5115763;28;20027;-58
2021/01/07 04:03:56;;;;;;;9.80;6.97;;;;;;;3.60;85.96;99941.34;5115492;28;20054;-55
2021/01/07 04:06:21;;;;;;;13.00;8.15;;;;;;;3.58;85.06;99935.38;5115801;28;20047;-56
2021/01/07 04:08:46;;;;;;;13.20;8.82;;;;;;;3.55;85.42;99927.72;5115715;28;20500;-58
2021/01/07 04:11:12;;;;;;;14.23;8.18;;;;;;;3.54;85.52;99937.22;5115961;28;20023;-59
2021/01/07 04:13:37;;;;;;;11.40;7.72;;;;;;;3.55;85.26;99936.88;5102014;28;20024;-58
2021/01/07 04:16:03;;;;;;;10.80;7.88;;;;;;;3.56;85.12;99943.22;5110379;28;20107;-57
2021/01/07 04:18:28;;;;;;;12.32;8.25;;;;;;;3.59;85.04;99945.31;5107739;28;20497;-58
2021/01/07 04:20:54;;;;;;;13.60;7.72;;;;;;;3.56;84.97;99946.00;5109563;28;20110;-58
2021/01/07 04:23:19;;;;;;;9.80;7.47;;;;;;;3.53;84.28;99947.53;5115550;28;20036;-58
2021/01/07 04:25:45;;;;;;;11.35;7.72;;;;;;;3.54;84.94;99956.69;5115548;28;20019;-57
2021/01/07 04:28:10;;;;;;;11.43;8.43;;;;;;;3.52;84.46;99943.16;5114781;28;20024;-56
2021/01/07 04:30:35;;;;;;;10.48;7.65;;;;;;;3.48;84.44;99936.72;5113152;28;20349;-58
2021/01/07 04:33:01;;;;;;;11.65;7.65;;;;;;;3.44;83.78;99944.19;5112565;28;20047;-56
2021/01/07 04:35:26;;;;;;;10.98;7.78;;;;;;;3.41;84.64;99948.50;5115863;28;20028;-52
2021/01/07 04:37:51;;;;;;;12.45;8.05;;;;;;;3.40;84.76;99958.03;5114337;28;20296;-56
2021/01/07 04:40:17;;;;;;;13.15;9.20;;;;;;;3.40;84.51;99946.91;5113760;28;20028;-56
2021/01/07 04:42:42;;;;;;;14.60;9.45;;;;;;;3.39;84.78;99956.41;5114743;28;20073;-58
2021/01/07 04:45:08;;;;;;;16.55;10.27;;;;;;;3.40;85.08;99954.44;5104277;28;20031;-67
2021/01/07 04:47:35;;;;;;;22.80;12.73;;;;;;;3.41;85.05;99972.72;5097773;28;20020;-66
2021/01/07 04:50:01;;;;;;;21.50;12.00;;;;;;;3.41;84.84;99962.41;5100667;28;20415;-66
2021/01/07 04:52:26;;;;;;;37.10;20.58;;;;;;;3.41;85.13;99973.50;5102633;27;20031;-66
2021/01/07 04:54:53;;;;;;;47.05;27.80;;;;;;;3.41;85.06;99984.63;5101645;28;20023;-65
2021/01/07 04:57:19;;;;;;;34.63;20.45;;;;;;;3.42;84.91;99985.44;5105074;28;20042;-61
2021/01/07 04:59:44;;;;;;;21.95;13.52;;;;;;;3.44;84.80;99987.84;5101017;28;20078;-65
2021/01/07 05:02:10;;;;;;;22.58;14.43;;;;;;;3.44;85.11;99979.50;5101850;28;20024;-67
2021/01/07 05:04:53;;;;;;;24.52;16.35;;;;;;;3.43;85.18;99981.47;5100904;28;20028;-66
2021/01/07 05:07:22;;;;;;;42.13;24.67;;;;;;;3.39;85.10;99981.41;5114826;28;20051;-66
2021/01/07 05:09:58;;;;;;;198.63;101.07;;;;;;;3.36;84.95;99976.59;5100814;28;20028;-66
2021/01/07 05:12:23;;;;;;;88.63;58.38;;;;;;;3.33;84.91;99977.31;5102888;28;20031;-59
2021/01/07 05:14:49;;;;;;;54.30;35.00;;;;;;;3.35;85.57;99976.94;5100225;28;20103;-57
2021/01/07 05:17:16;;;;;;;36.75;22.38;;;;;;;3.36;85.47;99982.16;5103253;28;20023;-57
2021/01/07 05:19:41;;;;;;;28.58;17.63;;;;;;;3.36;85.38;99986.91;5101380;28;20051;-58
2021/01/07 05:22:07;;;;;;;18.88;12.95;;;;;;;3.36;85.67;99990.47;5101977;28;20020;-55
2021/01/07 05:24:33;;;;;;;20.00;13.43;;;;;;;3.37;85.40;99992.09;5103261;28;20030;-57
2021/01/07 05:27:17;;;;;;;20.20;13.30;;;;;;;3.40;85.32;99988.56;5100109;28;20380;-65
2021/01/07 05:29:43;;;;;;;18.85;12.32;;;;;;;3.40;85.14;99996.91;5103807;28;20059;-67
2021/01/07 05:32:10;;;;;;;24.13;14.60;;;;;;;3.40;84.98;99996.09;5105951;28;20051;-58
2021/01/07 05:34:48;;;;;;;21.98;13.32;;;;;;;3.40;84.81;99996.09;5111431;28;20047;-57
2021/01/07 05:37:18;;;;;;;19.63;11.65;;;;;;;3.40;85.50;99999.69;5102735;28;20292;-67
2021/01/07 05:39:45;;;;;;;16.40;10.73;;;;;;;3.40;85.16;100005.25;5106299;28;20023;-55
2021/01/07 05:42:11;;;;;;;16.55;11.32;;;;;;;3.40;85.44;100002.47;5101627;28;20024;-56
2021/01/07 05:44:47;;;;;;;15.48;10.77;;;;;;;3.41;85.34;100006.84;5100797;28;20028;-67
2021/01/07 05:47:29;;;;;;;16.55;10.85;;;;;;;3.41;85.21;100004.06;5099839;28;20093;-58
2021/01/07 05:49:56;;;;;;;17.30;11.50;;;;;;;3.41;85.52;100003.28;5104641;28;20015;-58
2021/01/07 05:52:22;;;;;;;27.63;17.60;;;;;;;3.41;85.00;100008.84;5097972;28;20024;-47
2021/01/07 05:54:49;;;;;;;19.58;13.23;;;;;;;3.41;85.48;100014.38;5106439;28;20058;-59
2021/01/07 05:57:18;;;;;;;20.23;14.75;;;;;;;3.48;85.72;100019.28;5110398;28;20024;-55
2021/01/07 05:59:45;;;;;;;27.27;18.42;;;;;;;3.50;84.99;100012.19;5109733;28;20024;-56
2021/01/07 06:02:16;;;;;;;33.22;18.52;;;;;;;3.54;85.15;100023.38;5106087;28;20285;-57
2021/01/07 06:04:43;;;;;;;34.88;18.17;;;;;;;3.56;84.23;100026.59;5109924;28;20047;-55
2021/01/07 06:07:11;;;;;;;29.35;16.35;;;;;;;3.56;84.12;100024.66;5107329;28;20031;-58
2021/01/07 06:09:36;;;;;;;24.23;14.32;;;;;;;3.58;84.53;100024.28;5112560;28;20015;-68
2021/01/07 06:12:02;;;;;;;19.58;13.00;;;;;;;3.56;83.99;100027.44;5107393;28;20469;-58
2021/01/07 06:14:28;;;;;;;17.27;11.30;;;;;;;3.58;84.48;100030.66;5109824;28;20041;-58
2021/01/07 06:16:55;;;;;;;22.25;13.77;;;;;;;3.56;84.13;100033.00;5107376;28;20024;-53
2021/01/07 06:19:31;;;;;;;20.27;13.35;;;;;;;3.57;84.23;100039.34;5107890;28;20015;-59
2021/01/07 06:21:58;;;;;;;22.33;13.18;;;;;;;3.56;84.16;100046.88;5107801;28;20495;-58
2021/01/07 06:24:29;;;;;;;19.52;12.45;;;;;;;3.59;84.42;100048.13;5107198;28;20016;-59
2021/01/07 06:26:55;;;;;;;14.80;10.48;;;;;;;3.58;84.29;100047.31;5108853;28;20046;-58
2021/01/07 06:29:20;;;;;;;22.40;13.68;;;;;;;3.58;84.03;100052.06;5107129;28;20031;-57
2021/01/07 06:31:55;;;;;;;22.35;13.60;;;;;;;3.56;84.28;100052.44;5111729;28;20102;-57
2021/01/07 06:34:38;;;;;;;20.15;13.73;;;;;;;3.60;84.46;100066.41;5112215;28;20016;-55
2021/01/07 06:37:04;;;;;;;19.92;13.82;;;;;;;3.60;83.98;100072.78;5111532;28;20015;-57
2021/01/07 06:39:29;;;;;;;22.98;15.73;;;;;;;3.58;84.22;100080.66;5117338;28;20068;-58
2021/01/07 06:41:57;;;;;;;24.13;16.15;;;;;;;3.58;84.06;100079.88;5117112;28;20023;-67
2021/01/07 06:44:24;;;;;;;26.00;16.27;;;;;;;3.58;84.17;100083.44;5117060;28;20023;-66
2021/01/07 06:46:50;;;;;;;21.38;13.60;;;;;;;3.58;84.07;100079.88;5116975;28;20046;-64
2021/01/07 06:49:23;;;;;;;18.70;12.60;;;;;;;3.59;84.36;100096.19;5117132;28;20411;-66
2021/01/07 06:51:54;;;;;;;18.35;12.77;;;;;;;3.64;84.42;100095.09;5116514;28;20027;-67
2021/01/07 06:54:23;;;;;;;22.55;15.63;;;;;;;3.63;84.02;100099.03;5117179;28;20222;-67
2021/01/07 06:56:52;;;;;;;19.60;14.25;;;;;;;3.67;84.26;100099.91;5116371;28;20471;-66
2021/01/07 06:59:20;;;;;;;18.10;13.15;;;;;;;3.65;83.73;100114.19;5116989;27;20428;-66
2021/01/07 07:01:54;;;;;;;19.98;13.00;;;;;;;3.63;83.97;100105.41;5116870;28;20034;-66
2021/01/07 07:04:25;;;;;;;18.67;12.82;;;;;;;3.63;84.38;100107.38;5116674;28;20330;-66
2021/01/07 07:06:57;;;;;;;17.30;11.38;;;;;;;3.60;84.02;100111.69;5116606;28;20035;-66
2021/01/07 07:09:25;;;;;;;17.42;11.80;;;;;;;3.58;83.77;100121.56;5116701;28;20114;-67
2021/01/07 07:11:54;;;;;;;20.38;12.50;;;;;;;3.55;84.13;100125.84;5116259;28;20146;-65
2021/01/07 07:14:22;;;;;;;21.13;13.55;;;;;;;3.52;84.25;100137.69;5115480;28;20426;-66
2021/01/07 07:16:48;;;;;;;22.48;13.98;;;;;;;3.50;83.81;100145.56;5115435;28;20024;-67
2021/01/07 07:19:25;;;;;;;49.28;26.83;;;;;;;3.56;84.54;100151.66;5115354;28;20019;-65
2021/01/07 07:21:56;;;;;;;33.47;19.48;;;;;;;3.58;84.02;100160.47;5116325;27;20030;-66
2021/01/07 07:24:30;;;;;;;;;;;;;;;3.56;83.49;100157.22;5116586;28;20055;-67
2021/01/07 07:27:00;;;;;;;27.85;17.30;;;;;;;3.55;83.58;100166.72;5116324;28;19907;-64
2021/01/07 07:29:27;;;;;;;29.45;17.85;;;;;;;3.52;82.95;100170.22;5116137;28;20031;-63
2021/01/07 07:31:52;;;;;;;35.42;20.65;;;;;;;3.48;83.35;100169.34;5116263;28;20042;-59
2021/01/07 07:34:28;;;;;;;26.48;16.73;;;;;;;3.45;83.20;100172.84;5116293;28;20098;-59
2021/01/07 07:36:54;;;;;;;25.17;16.27;;;;;;;3.40;83.21;100174.72;5116177;28;20019;-58
2021/01/07 07:39:19;;;;;;;24.52;15.57;;;;;;;3.37;82.84;100175.44;5116322;28;20118;-66
2021/01/07 07:41:45;;;;;;;25.60;15.63;;;;;;;3.37;83.50;100181.00;5115821;28;20353;-57
2021/01/07 07:44:11;;;;;;;20.35;14.40;;;;;;;3.36;83.54;100184.94;5116589;28;20058;-57
2021/01/07 07:46:38;;;;;;;25.80;16.40;;;;;;;3.36;83.16;100187.72;5115941;28;20077;-58
2021/01/07 07:49:05;;;;;;;31.15;18.85;;;;;;;3.37;83.22;100189.34;5116428;28;20031;-55
2021/01/07 07:51:31;;;;;;;37.10;21.33;;;;;;;3.33;83.38;100185.66;5115834;28;20098;-59
2021/01/07 07:54:10;;;;;;;38.83;24.13;;;;;;;3.34;83.34;100181.72;5116371;28;20137;-58
2021/01/07 07:56:36;;;;;;;42.85;28.40;;;;;;;3.38;83.56;100185.38;5116014;27;20027;-66
2021/01/07 07:59:04;;;;;;;42.90;29.27;;;;;;;3.44;83.73;100193.44;5116067;28;20399;-56
2021/01/07 08:01:41;;;;;;;57.45;33.40;;;;;;;3.51;84.22;100197.19;5115968;28;20107;-54
2021/01/07 08:04:10;;;;;;;34.58;22.13;;;;;;;3.60;83.98;100192.28;5115718;28;20026;-59
2021/01/07 08:06:37;;;;;;;27.45;18.02;;;;;;;3.64;83.39;100195.94;5115799;28;20023;-59
2021/01/07 08:09:07;;;;;;;25.50;17.83;;;;;;;3.69;83.35;100200.41;5115877;28;20027;-57
2021/01/07 08:11:41;;;;;;;24.77;16.67;;;;;;;3.77;83.19;100196.63;5115448;28;20471;-63
2021/01/07 08:14:09;;;;;;;22.45;15.60;;;;;;;3.86;82.74;100191.69;5115775;28;20443;-67
2021/01/07 08:16:34;;;;;;;25.85;17.33;;;;;;;3.92;82.92;100198.59;5115885;28;20019;-66
2021/01/07 08:19:00;;;;;;;31.80;18.80;;;;;;;3.98;82.98;100201.88;5115504;28;20023;-65
2021/01/07 08:21:25;;;;;;;34.42;22.30;;;;;;;3.97;82.56;100203.84;5115782;28;20019;-66
2021/01/07 08:23:51;;;;;;;31.42;19.73;;;;;;;4.02;82.80;100211.91;5116416;28;20146;-66
2021/01/07 08:26:27;;;;;;;33.78;21.20;;;;;;;4.12;82.74;100212.53;5119635;28;20027;-66
2021/01/07 08:28:54;;;;;;;39.47;23.20;;;;;;;4.21;83.02;100208.38;5119975;28;20028;-67
2021/01/07 08:31:22;;;;;;;42.30;24.27;;;;;;;4.37;83.34;100211.06;5119747;28;20015;-59
2021/01/07 08:33:48;;;;;;;41.97;23.42;;;;;;;4.57;83.34;100207.13;5119459;28;20067;-57
2021/01/07 08:36:18;;;;;;;34.08;19.52;;;;;;;4.84;82.39;100215.63;5119475;28;20099;-58
2021/01/07 08:38:49;;;;;;;33.03;19.30;;;;;;;5.05;81.57;100213.25;5119328;28;20106;-59
2021/01/07 08:41:20;;;;;;;29.13;17.83;;;;;;;5.34;80.36;100227.69;5119826;28;20023;-57
2021/01/07 08:43:47;;;;;;;23.98;15.40;;;;;;;5.54;79.86;100216.09;5119370;28;20030;-59
2021/01/07 08:46:21;;;;;;;24.75;15.15;;;;;;;5.74;79.22;100216.78;5119664;28;20041;-67
2021/01/07 08:49:04;;;;;;;22.25;14.80;;;;;;;6.00;78.14;100218.03;5119207;28;20024;-66
2021/01/07 08:51:52;;;;;;;22.08;14.40;;;;;;;6.26;77.25;100226.38;5119367;28;20120;-66
2021/01/07 08:54:22;;;;;;;24.88;15.00;;;;;;;6.48;75.39;100225.47;5119318;28;20394;-64
2021/01/07 08:56:52;;;;;;;27.90;15.50;;;;;;;6.72;75.25;100228.97;5119283;28;20073;-65
2021/01/07 08:59:31;;;;;;;23.10;13.55;;;;;;;6.98;73.58;100234.47;5119476;28;20016;-67
2021/01/07 09:02:17;;;;;;;20.52;13.90;;;;;;;7.21;73.04;100231.53;5119190;28;20031;-59
2021/01/07 09:04:46;;;;;;;28.17;14.48;;;;;;;7.27;70.56;100229.97;5119040;28;20402;-59
2021/01/07 09:07:15;;;;;;;34.70;17.65;;;;;;;7.50;71.37;100235.41;5119209;28;20047;-59
2021/01/07 09:09:41;;;;;;;30.33;18.08;;;;;;;7.74;70.90;100232.00;5118720;28;20032;-57
2021/01/07 09:12:17;;;;;;;25.45;16.73;;;;;;;7.95;71.25;100233.38;5119236;28;20023;-59
2021/01/07 09:14:50;;;;;;;22.17;14.00;;;;;;;8.20;69.97;100237.13;5118739;28;20051;-59
2021/01/07 09:17:17;;;;;;;23.73;14.75;;;;;;;8.47;69.47;100239.72;5118845;28;20103;-66
2021/01/07 09:19:43;;;;;;;24.65;15.38;;;;;;;8.56;67.25;100238.19;5118795;28;20032;-65
2021/01/07 09:22:08;;;;;;;24.33;15.45;;;;;;;8.69;67.49;100235.81;5118629;28;20030;-67
2021/01/07 09:24:36;;;;;;;37.35;18.55;;;;;;;8.87;67.29;100236.69;5118441;28;20422;-66
2021/01/07 09:27:22;;;;;;;24.63;14.68;;;;;;;9.04;67.67;100239.94;5117827;28;20026;-65
2021/01/07 09:29:47;;;;;;;18.55;12.68;;;;;;;9.20;66.96;100234.78;5117362;28;20031;-63
2021/01/07 09:32:13;;;;;;;21.63;13.07;;;;;;;9.35;65.22;100238.44;5118644;28;20043;-59
2021/01/07 09:34:40;;;;;;;17.60;11.57;;;;;;;9.54;65.32;100236.03;5118164;28;20019;-59
2021/01/07 09:37:11;;;;;;;16.13;10.38;;;;;;;9.70;64.58;100227.25;5117187;28;20039;-58
2021/01/07 09:39:37;;;;;;;17.80;11.18;;;;;;;9.72;63.04;100235.25;5118525;28;20023;-58
2021/01/07 09:42:04;;;;;;;18.40;10.88;;;;;;;9.69;62.08;100230.44;5118227;28;20417;-67
2021/01/07 09:44:30;;;;;;;17.58;11.07;;;;;;;9.82;63.08;100228.84;5118549;27;20027;-64
2021/01/07 09:46:57;;;;;;;19.67;11.65;;;;;;;9.96;63.88;100230.84;5118340;28;20027;-66
2021/01/07 09:49:24;;;;;;;15.48;10.55;;;;;;;9.92;60.93;100233.66;5117303;28;20026;-66
2021/01/07 09:51:49;;;;;;;16.58;11.32;;;;;;;9.94;61.52;100228.44;5116556;28;20023;-64
2021/01/07 09:54:15;;;;;;;16.25;9.77;;;;;;;9.89;62.38;100234.47;5117272;28;20039;-65
2021/01/07 09:56:40;;;;;;;14.95;9.88;;;;;;;9.89;61.98;100234.47;5118045;28;20024;-59
2021/01/07 09:59:06;;;;;;;13.25;9.32;;;;;;;9.88;63.21;100228.03;5117909;28;20407;-59
2021/01/07 10:01:31;;;;;;;14.40;9.55;;;;;;;9.94;63.04;100236.06;5118079;28;20055;-66
2021/01/07 10:03:57;;;;;;;18.65;11.60;;;;;;;9.96;62.34;100234.44;5118087;28;20019;-66
2021/01/07 10:06:22;;;;;;;27.42;14.85;;;;;;;9.91;62.07;100234.88;5117610;28;20094;-67
2021/01/07 10:08:47;;;;;;;18.15;11.02;;;;;;;9.81;61.92;100233.66;5117752;28;20045;-66
2021/01/07 10:11:13;;;;;;;17.20;10.35;;;;;;;9.73;61.76;100234.84;5117944;28;20019;-66
2021/01/07 10:13:38;;;;;;;17.45;10.30;;;;;;;9.68;63.17;100229.66;5117628;28;20020;-66
2021/01/07 10:16:04;;;;;;;14.98;10.52;;;;;;;9.56;61.37;100222.41;5117706;28;20023;-67
2021/01/07 10:18:29;;;;;;;14.25;8.95;;;;;;;9.51;62.35;100227.63;5117702;28;20035;-67
2021/01/07 10:20:59;;;;;;;17.08;10.05;;;;;;;9.50;63.62;100224.00;5117306;28;20023;-66
2021/01/07 10:23:24;;;;;;;17.17;9.85;;;;;;;9.48;61.28;100228.44;5117692;28;20029;-67
2021/01/07 10:25:50;;;;;;;13.07;8.35;;;;;;;9.47;62.47;100230.44;5117389;28;20035;-67
2021/01/07 10:28:17;;;;;;;15.77;10.90;;;;;;;9.42;63.00;100225.22;5116582;28;20055;-66
2021/01/07 10:30:42;;;;;;;14.15;9.43;;;;;;;9.44;63.36;100234.03;5117311;27;20034;-61
2021/01/07 10:33:08;;;;;;;15.15;9.57;;;;;;;9.48;63.23;100225.63;5117286;28;20043;-59
2021/01/07 10:35:37;;;;;;;12.52;9.25;;;;;;;9.53;62.25;100225.22;5116998;28;20027;-59
2021/01/07 10:38:03;;;;;;;14.05;8.90;;;;;;;9.47;62.96;100219.22;5117158;28;20033;-59
2021/01/07 10:40:31;;;;;;;11.45;8.30;;;;;;;9.54;62.87;100224.00;5117239;28;20118;-57
2021/01/07 10:42:58;;;;;;;10.27;8.05;;;;;;;9.50;61.97;100218.41;5117568;28;20023;-66
2021/01/07 10:45:23;;;;;;;11.07;7.90;;;;;;;9.51;61.96;100219.22;5116899;28;20023;-67
2021/01/07 10:47:49;;;;;;;10.10;7.75;;;;;;;9.57;63.58;100209.97;5116815;28;20019;-65
2021/01/07 10:50:21;;;;;;;11.43;8.43;;;;;;;9.71;62.55;100214.00;5116666;28;20027;-67
2021/01/07 10:53:15;;;;;;;;;;;;;;;9.71;61.49;100205.59;5117393;28;20069;-63
2021/01/07 10:56:01;;;;;;;9.65;7.22;;;;;;;9.86;61.39;100218.41;5092395;28;19911;-61
2021/01/07 10:58:33;;;;;;;9.00;7.35;;;;;;;10.04;62.10;100219.19;5117082;28;20426;-55
2021/01/07 11:01:07;;;;;;;11.05;8.88;;;;;;;10.16;60.50;100220.78;5117108;28;20357;-57
2021/01/07 11:04:13;;;;;;;14.23;7.90;;;;;;;10.13;59.75;100216.75;5116546;28;20452;-59
2021/01/07 11:06:50;;;;;;;9.10;7.63;;;;;;;10.12;59.66;100215.16;5101214;28;20035;-59
2021/01/07 11:09:18;;;;;;;9.20;7.13;;;;;;;10.29;60.84;100218.38;5116736;28;20030;-62
2021/01/07 11:11:50;;;;;;;7.43;5.68;;;;;;;10.44;59.75;100219.97;5116559;28;20338;-59
2021/01/07 11:14:36;;;;;;;8.98;6.50;;;;;;;10.49;60.18;100225.16;5116867;28;20014;-59
2021/01/07 11:17:06;;;;;;;10.70;8.00;;;;;;;10.42;57.13;100228.00;5116565;28;20031;-58
2021/01/07 11:19:32;;;;;;;10.70;7.90;;;;;;;10.48;58.63;100223.56;5115962;28;20023;-64
2021/01/07 11:22:12;;;;;;;9.23;7.53;;;;;;;10.60;59.03;100225.91;5116829;28;20315;-68
2021/01/07 11:24:42;;;;;;;10.93;7.43;;;;;;;10.73;58.35;100221.47;5116479;28;20115;-68
2021/01/07 11:27:11;;;;;;;14.40;8.43;;;;;;;10.84;57.02;100222.19;5116582;28;20415;-59